Time;durP1;ratioP1;P1;durP2;ratioP2;P2;SDS_P1;SDS_P2;PMS_P1;PMS_P2;Temp;Humidity;BMP_temperature;BMP_pressure;BME280_temperature;BME280_humidity;BME280_pressure;Samples;Min_cycle;Max_cycle;Signal;HPM_P1;HPM_P2
2022/09/06 00:01:24;;;;;;;7.60;5.83;;;24.20;98.30;;;;;;4973390;28;20267;-67
2022/09/06 00:03:50;;;;;;;6.93;5.30;;;24.10;99.00;;;;;;4974158;28;20257;-67
2022/09/06 00:06:17;;;;;;;6.80;6.10;;;24.10;99.10;;;;;;4974293;28;20469;-67
2022/09/06 00:08:44;;;;;;;8.73;6.00;;;24.10;99.70;;;;;;4975330;28;20187;-67
2022/09/06 00:11:11;;;;;;;6.63;5.83;;;24.00;99.90;;;;;;4976414;28;20445;-66
2022/09/06 00:13:37;;;;;;;7.00;5.50;;;24.00;99.90;;;;;;4974548;28;20471;-67
2022/09/06 00:16:11;;;;;;;6.53;5.80;;;24.00;99.90;;;;;;4957876;28;20854;-67
2022/09/06 00:18:37;;;;;;;7.03;5.63;;;23.80;99.90;;;;;;4975687;28;20512;-67
2022/09/06 00:21:12;;;;;;;7.37;5.83;;;23.70;99.90;;;;;;4975718;28;20487;-67
2022/09/06 00:23:37;;;;;;;9.07;5.73;;;23.70;99.90;;;;;;4974288;28;20467;-68
2022/09/06 00:26:04;;;;;;;10.43;6.40;;;23.70;99.90;;;;;;4954418;28;20470;-68
2022/09/06 00:28:30;;;;;;;6.10;5.50;;;23.60;99.90;;;;;;4977162;28;20226;-67
2022/09/06 00:30:56;;;;;;;7.70;6.20;;;23.60;99.90;;;;;;4954962;28;20521;-68
2022/09/06 00:33:22;;;;;;;6.13;5.40;;;23.50;99.90;;;;;;4972068;28;20468;-67
2022/09/06 00:35:48;;;;;;;6.70;5.37;;;23.40;99.90;;;;;;4977833;28;20468;-67
2022/09/06 00:38:13;;;;;;;6.47;5.40;;;23.20;99.90;;;;;;4972416;28;20191;-67
2022/09/06 00:40:39;;;;;;;6.50;4.80;;;23.20;99.90;;;;;;4973627;28;20237;-68
2022/09/06 00:43:05;;;;;;;6.53;4.90;;;23.20;99.90;;;;;;4974554;28;20603;-68
2022/09/06 00:45:31;;;;;;;8.37;5.20;;;23.30;99.90;;;;;;4973236;28;20229;-67
2022/09/06 00:47:58;;;;;;;8.00;5.80;;;23.30;99.90;;;;;;4957026;28;20186;-68
2022/09/06 00:50:24;;;;;;;7.57;4.93;;;23.20;99.90;;;;;;4958868;28;20796;-67
2022/09/06 00:52:51;;;;;;;11.50;5.57;;;23.30;99.90;;;;;;4972938;28;20438;-67
2022/09/06 00:55:18;;;;;;;6.73;5.20;;;23.20;99.90;;;;;;4957153;28;20742;-67
2022/09/06 00:57:45;;;;;;;11.23;7.17;;;23.30;99.90;;;;;;4974404;28;20439;-67
2022/09/06 01:00:11;;;;;;;11.60;5.60;;;23.30;99.90;;;;;;4975247;28;20476;-67
2022/09/06 01:02:37;;;;;;;7.17;6.23;;;23.30;99.90;;;;;;4972857;28;20447;-67
2022/09/06 01:05:04;;;;;;;10.30;6.40;;;23.20;99.90;;;;;;4973447;28;20472;-68
2022/09/06 01:07:45;;;;;;;6.07;5.10;;;23.20;99.90;;;;;;4976115;28;20179;-67
2022/09/06 01:10:29;;;;;;;5.47;4.73;;;23.30;99.90;;;;;;4974619;28;20600;-67
2022/09/06 01:13:16;;;;;;;6.70;5.80;;;23.20;99.90;;;;;;4974589;28;20457;-67
2022/09/06 01:16:24;;;;;;;6.70;5.53;;;22.80;99.90;;;;;;4973921;28;20498;-67
2022/09/06 01:19:13;;;;;;;7.33;5.47;;;22.40;99.90;;;;;;4951389;28;20441;-66
2022/09/06 01:21:44;;;;;;;7.07;6.20;;;22.30;99.90;;;;;;4970577;28;20440;-66
2022/09/06 01:24:27;;;;;;;6.47;5.80;;;22.40;99.90;;;;;;4973876;28;20457;-66
2022/09/06 01:27:08;;;;;;;6.27;5.67;;;22.20;99.90;;;;;;4972066;28;20472;-66
2022/09/06 01:29:53;;;;;;;8.20;5.70;;;22.10;99.90;;;;;;4976129;28;20444;-66
2022/09/06 01:32:29;;;;;;;7.30;5.50;;;22.10;99.90;;;;;;4972251;28;20441;-66
2022/09/06 01:35:05;;;;;;;6.23;5.63;;;22.00;99.90;;;;;;4973639;28;20559;-66
2022/09/06 01:37:31;;;;;;;5.63;5.13;;;22.00;99.90;;;;;;4974913;28;20456;-67
2022/09/06 01:39:57;;;;;;;5.77;5.20;;;22.00;99.90;;;;;;4974473;28;20888;-66
2022/09/06 01:42:28;;;;;;;7.00;6.10;;;21.90;99.90;;;;;;4974416;28;20464;-66
2022/09/06 01:44:59;;;;;;;5.30;4.60;;;21.90;99.90;;;;;;4972201;28;20612;-67
2022/09/06 01:47:48;;;;;;;8.40;5.17;;;21.90;99.90;;;;;;4978680;28;20445;-67
2022/09/06 01:50:55;;;;;;;7.37;5.57;;;22.00;99.90;;;;;;4960733;28;20456;-66
2022/09/06 01:53:30;;;;;;;6.80;5.53;;;22.10;99.90;;;;;;4970620;28;20561;-66
2022/09/06 01:56:16;;;;;;;9.00;5.50;;;22.20;99.90;;;;;;4970739;28;21121;-66
2022/09/06 01:58:54;;;;;;;5.80;5.30;;;22.30;99.90;;;;;;4968116;28;21181;-66
2022/09/06 02:01:34;;;;;;;6.17;5.40;;;22.40;99.90;;;;;;4956071;28;20528;-67
2022/09/06 02:04:19;;;;;;;7.70;5.40;;;22.40;99.90;;;;;;4972178;28;20530;-67
2022/09/06 02:06:53;;;;;;;6.00;5.50;;;22.30;99.90;;;;;;4969415;28;20461;-66
2022/09/06 02:09:22;;;;;;;6.10;5.50;;;22.30;99.90;;;;;;4973558;28;20889;-67
2022/09/06 02:11:53;;;;;;;5.60;5.10;;;22.40;99.90;;;;;;4973326;28;20433;-67
2022/09/06 02:14:26;;;;;;;6.90;5.57;;;22.40;99.90;;;;;;4973427;28;20885;-66
2022/09/06 02:16:53;;;;;;;6.50;5.53;;;22.40;99.90;;;;;;4975224;28;20462;-67
2022/09/06 02:19:48;;;;;;;5.60;5.10;;;22.50;99.90;;;;;;4975991;28;20547;-67
2022/09/06 02:22:18;;;;;;;5.60;5.10;;;22.50;99.90;;;;;;4967506;28;20445;-66
2022/09/06 02:24:46;;;;;;;6.23;5.60;;;22.50;99.90;;;;;;4975279;28;20461;-67
2022/09/06 02:27:13;;;;;;;6.50;5.20;;;22.50;99.90;;;;;;4979530;28;20445;-67
2022/09/06 02:29:39;;;;;;;7.70;5.30;;;22.40;99.90;;;;;;4959835;28;20860;-67
2022/09/06 02:32:21;;;;;;;6.60;5.80;;;22.40;99.90;;;;;;4978473;28;21050;-67
2022/09/06 02:34:52;;;;;;;6.77;5.50;;;22.30;99.90;;;;;;4975284;28;20468;-67
2022/09/06 02:37:18;;;;;;;12.33;6.17;;;22.30;99.90;;;;;;4974756;28;21349;-67
2022/09/06 02:39:44;;;;;;;6.63;5.93;;;22.20;99.90;;;;;;4976863;28;20438;-67
2022/09/06 02:42:13;;;;;;;6.60;5.50;;;22.20;99.90;;;;;;4976926;28;20852;-67
2022/09/06 02:44:39;;;;;;;5.97;5.37;;;22.30;99.90;;;;;;4976767;28;20230;-67
2022/09/06 02:47:04;;;;;;;7.07;5.77;;;22.30;99.90;;;;;;4977077;28;20483;-69
2022/09/06 02:49:30;;;;;;;7.33;6.13;;;22.30;99.90;;;;;;4978471;28;20449;-67
2022/09/06 02:51:56;;;;;;;7.63;5.33;;;22.30;99.90;;;;;;4977055;28;20194;-67
2022/09/06 02:54:22;;;;;;;7.17;5.53;;;22.30;99.90;;;;;;4978998;28;21054;-67
2022/09/06 02:56:48;;;;;;;7.10;5.47;;;22.20;99.90;;;;;;4973739;28;20182;-67
2022/09/06 02:59:14;;;;;;;11.93;5.37;;;22.20;99.90;;;;;;4974001;28;20927;-67
2022/09/06 03:01:39;;;;;;;7.70;5.67;;;22.10;99.90;;;;;;4972675;28;20552;-67
2022/09/06 03:04:05;;;;;;;5.47;4.97;;;22.10;99.90;;;;;;4973171;28;20216;-66
2022/09/06 03:06:31;;;;;;;6.33;5.50;;;22.10;99.90;;;;;;4973404;28;20224;-67
2022/09/06 03:08:58;;;;;;;6.30;5.70;;;22.20;99.90;;;;;;4976607;28;20879;-66
2022/09/06 03:11:24;;;;;;;7.47;6.03;;;22.10;99.90;;;;;;4975650;28;20551;-66
2022/09/06 03:13:51;;;;;;;11.90;5.60;;;22.10;99.90;;;;;;4975068;28;20528;-66
2022/09/06 03:16:17;;;;;;;6.60;5.73;;;22.10;99.90;;;;;;4975445;28;20252;-67
2022/09/06 03:18:43;;;;;;;6.30;5.70;;;22.10;99.90;;;;;;4977341;28;20942;-67
2022/09/06 03:21:08;;;;;;;7.40;5.60;;;22.00;99.90;;;;;;4974428;28;20473;-66
2022/09/06 03:23:34;;;;;;;5.80;5.20;;;22.10;99.90;;;;;;4977462;28;20206;-66
2022/09/06 03:26:00;;;;;;;8.00;6.10;;;22.10;99.90;;;;;;4976964;28;20209;-67
2022/09/06 03:28:26;;;;;;;6.57;5.50;;;22.10;99.90;;;;;;4976914;28;20190;-66
2022/09/06 03:30:52;;;;;;;8.27;5.60;;;22.10;99.90;;;;;;4976309;28;20241;-66
2022/09/06 03:33:19;;;;;;;7.30;5.93;;;22.00;99.90;;;;;;4974530;28;20450;-66
2022/09/06 03:35:53;;;;;;;8.00;5.30;;;22.10;99.90;;;;;;4977650;28;20450;-66
2022/09/06 03:38:20;;;;;;;7.30;5.97;;;22.10;99.90;;;;;;4973675;28;20443;-67
2022/09/06 03:40:48;;;;;;;6.40;5.43;;;22.10;99.90;;;;;;4971739;28;20469;-66
2022/09/06 03:43:16;;;;;;;7.90;5.87;;;22.10;99.90;;;;;;4972770;28;20496;-66
2022/09/06 03:45:47;;;;;;;10.60;5.50;;;22.10;99.90;;;;;;4974480;28;20836;-66
2022/09/06 03:48:14;;;;;;;5.83;5.27;;;22.00;99.90;;;;;;4973518;28;20533;-66
2022/09/06 03:51:00;;;;;;;7.97;6.13;;;22.00;99.90;;;;;;4957480;28;20504;-66
2022/09/06 03:53:27;;;;;;;6.13;5.53;;;22.00;99.90;;;;;;4973622;28;21000;-66
2022/09/06 03:55:54;;;;;;;6.63;5.73;;;22.00;99.90;;;;;;4974755;28;20480;-67
2022/09/06 03:58:22;;;;;;;7.20;5.87;;;22.00;99.90;;;;;;4974944;28;20449;-66
2022/09/06 04:00:48;;;;;;;6.30;5.57;;;22.00;99.90;;;;;;4971783;28;20446;-66
2022/09/06 04:03:14;;;;;;;6.13;5.23;;;21.90;99.90;;;;;;4974496;28;20937;-66
2022/09/06 04:05:43;;;;;;;8.60;7.77;;;22.00;99.90;;;;;;4969745;28;20309;-66
2022/09/06 04:08:08;;;;;;;7.40;6.70;;;21.90;99.90;;;;;;4973177;28;20872;-67
2022/09/06 04:10:34;;;;;;;7.23;6.13;;;21.90;99.90;;;;;;4978034;28;20536;-67
2022/09/06 04:12:59;;;;;;;8.10;6.90;;;21.80;99.90;;;;;;4962366;28;20573;-66
2022/09/06 04:15:25;;;;;;;8.20;5.57;;;21.80;99.90;;;;;;4974087;28;20229;-67
2022/09/06 04:17:51;;;;;;;8.27;5.93;;;21.80;99.90;;;;;;4975188;28;20194;-66
2022/09/06 04:20:16;;;;;;;6.47;5.87;;;21.80;99.90;;;;;;4970363;28;20626;-67
2022/09/06 04:22:42;;;;;;;7.10;5.67;;;21.80;99.90;;;;;;4974054;28;20296;-67
2022/09/06 04:25:09;;;;;;;6.17;5.57;;;21.80;99.90;;;;;;4972648;28;20569;-66
2022/09/06 04:27:35;;;;;;;7.70;5.90;;;21.80;99.90;;;;;;4975446;28;20588;-67
2022/09/06 04:30:00;;;;;;;6.20;5.60;;;21.80;99.90;;;;;;4972524;28;20432;-66
2022/09/06 04:32:26;;;;;;;7.63;6.57;;;21.80;99.90;;;;;;4975641;28;20236;-67
2022/09/06 04:34:51;;;;;;;7.63;5.60;;;21.80;99.90;;;;;;4970637;28;21045;-67
2022/09/06 04:37:18;;;;;;;6.73;6.00;;;21.80;99.90;;;;;;4971715;28;20186;-67
2022/09/06 04:39:45;;;;;;;6.37;5.67;;;21.80;99.90;;;;;;4973397;28;20185;-67
2022/09/06 04:42:11;;;;;;;5.70;5.20;;;21.70;99.90;;;;;;4974285;28;20859;-67
2022/09/06 04:44:36;;;;;;;8.27;7.50;;;21.70;99.90;;;;;;4973063;28;20468;-67
2022/09/06 04:47:16;;;;;;;9.90;6.20;;;21.70;99.90;;;;;;4973350;28;20218;-67
2022/09/06 04:49:43;;;;;;;7.23;6.27;;;21.70;99.90;;;;;;4958667;28;20181;-67
2022/09/06 04:52:10;;;;;;;7.63;6.27;;;21.70;99.90;;;;;;4975143;28;20446;-67
2022/09/06 04:54:35;;;;;;;6.40;5.80;;;21.70;99.90;;;;;;4972239;28;20987;-66
2022/09/06 04:57:01;;;;;;;6.53;5.60;;;21.70;99.90;;;;;;4968183;28;20445;-67
2022/09/06 04:59:27;;;;;;;7.20;5.90;;;21.70;99.90;;;;;;4971565;28;20213;-67
2022/09/06 05:01:53;;;;;;;6.73;5.20;;;21.70;99.90;;;;;;4969058;28;20236;-67
2022/09/06 05:04:18;;;;;;;8.43;5.83;;;21.70;99.90;;;;;;4969642;28;20205;-67
2022/09/06 05:06:44;;;;;;;6.70;6.10;;;21.70;99.90;;;;;;4968884;28;21164;-66
2022/09/06 05:09:10;;;;;;;6.83;5.97;;;21.70;99.90;;;;;;4970540;28;20197;-67
2022/09/06 05:11:35;;;;;;;6.37;5.73;;;21.60;99.90;;;;;;4972888;28;20182;-67
2022/09/06 05:14:01;;;;;;;8.37;6.27;;;21.60;99.90;;;;;;4975960;28;20336;-67
2022/09/06 05:16:27;;;;;;;8.53;6.00;;;21.60;99.90;;;;;;4971331;28;20889;-67
2022/09/06 05:18:52;;;;;;;7.43;6.67;;;21.60;99.90;;;;;;4971090;28;20213;-67
2022/09/06 05:21:18;;;;;;;9.50;6.30;;;21.60;99.90;;;;;;4970528;28;20594;-67
2022/09/06 05:23:44;;;;;;;6.93;6.00;;;21.60;99.90;;;;;;4953567;28;20217;-67
2022/09/06 05:26:09;;;;;;;8.40;6.83;;;21.70;99.90;;;;;;4970065;28;20209;-66
2022/09/06 05:28:35;;;;;;;7.17;6.43;;;21.60;99.90;;;;;;4975278;28;20221;-67
2022/09/06 05:31:12;;;;;;;7.70;6.27;;;21.70;99.90;;;;;;4973723;28;20190;-66
2022/09/06 05:33:38;;;;;;;6.67;5.97;;;21.70;99.90;;;;;;4973795;28;20213;-67
2022/09/06 05:36:05;;;;;;;7.50;5.77;;;21.70;99.90;;;;;;4967405;28;20445;-67
2022/09/06 05:38:30;;;;;;;7.20;5.73;;;21.70;99.90;;;;;;4972282;28;20193;-67
2022/09/06 05:40:56;;;;;;;6.90;5.67;;;21.70;99.90;;;;;;4953937;28;20452;-67
2022/09/06 05:43:22;;;;;;;6.30;5.70;;;21.80;99.90;;;;;;4970187;28;20217;-67
2022/09/06 05:45:47;;;;;;;7.10;6.10;;;21.80;99.90;;;;;;4968712;28;20722;-67
2022/09/06 05:48:13;;;;;;;7.17;6.47;;;21.80;99.90;;;;;;4972393;28;20194;-67
2022/09/06 05:50:38;;;;;;;6.73;6.13;;;21.90;99.90;;;;;;4972056;28;20187;-67
2022/09/06 05:53:04;;;;;;;8.80;6.13;;;21.90;99.90;;;;;;4967381;28;20266;-67
2022/09/06 05:55:29;;;;;;;13.27;6.63;;;21.90;99.90;;;;;;4973156;28;20566;-67
2022/09/06 05:57:55;;;;;;;6.13;5.53;;;21.90;99.90;;;;;;4977975;28;20205;-67
2022/09/06 06:00:21;;;;;;;6.70;6.03;;;22.00;99.90;;;;;;4974653;28;20198;-67
2022/09/06 06:02:48;;;;;;;8.33;6.80;;;22.00;99.90;;;;;;4975061;28;20459;-67
2022/09/06 06:05:14;;;;;;;7.63;5.97;;;22.00;99.90;;;;;;4973642;28;20665;-67
2022/09/06 06:07:39;;;;;;;7.50;6.10;;;22.00;99.90;;;;;;4971244;28;20426;-67
2022/09/06 06:10:05;;;;;;;9.70;6.30;;;22.00;99.90;;;;;;4974137;28;20476;-66
2022/09/06 06:12:31;;;;;;;9.70;6.67;;;22.10;99.90;;;;;;4976923;28;20190;-66
2022/09/06 06:14:56;;;;;;;9.40;8.37;;;22.10;99.90;;;;;;4962194;28;20213;-67
2022/09/06 06:17:22;;;;;;;8.90;7.33;;;22.10;99.90;;;;;;4972118;28;20182;-66
2022/09/06 06:19:48;;;;;;;7.37;6.27;;;22.20;99.90;;;;;;4975187;28;20270;-67
2022/09/06 06:22:13;;;;;;;8.90;6.70;;;22.20;99.90;;;;;;4974806;28;20206;-67
2022/09/06 06:24:39;;;;;;;34.37;9.50;;;22.20;99.90;;;;;;4974833;28;20829;-67
2022/09/06 06:27:04;;;;;;;8.43;6.60;;;22.10;99.90;;;;;;4973036;28;20297;-66
2022/09/06 06:29:30;;;;;;;7.33;6.63;;;22.20;99.90;;;;;;4959346;28;20180;-67
2022/09/06 06:31:56;;;;;;;8.27;6.90;;;22.20;99.90;;;;;;4975387;28;20203;-66
2022/09/06 06:34:21;;;;;;;7.20;6.50;;;22.30;99.90;;;;;;4971542;28;20217;-68
2022/09/06 06:36:47;;;;;;;8.80;6.87;;;22.40;99.90;;;;;;4971077;28;20198;-68
2022/09/06 06:39:13;;;;;;;14.57;7.83;;;22.20;99.90;;;;;;4978450;28;20197;-68
2022/09/06 06:41:39;;;;;;;7.73;6.93;;;22.10;99.90;;;;;;4972169;28;20421;-67
2022/09/06 06:44:05;;;;;;;10.80;6.83;;;22.00;99.90;;;;;;4974017;28;20683;-67
2022/09/06 06:46:36;;;;;;;11.77;6.90;;;22.10;99.90;;;;;;4972685;28;20245;-68
2022/09/06 06:49:02;;;;;;;12.30;7.50;;;22.10;99.90;;;;;;4976020;28;20416;-68
2022/09/06 06:51:31;;;;;;;13.20;8.60;;;22.00;99.90;;;;;;4974526;28;20881;-67
2022/09/06 06:53:57;;;;;;;16.70;7.40;;;21.90;99.90;;;;;;4972112;28;20450;-67
2022/09/06 06:56:26;;;;;;;9.97;8.10;;;22.00;99.90;;;;;;4974192;28;21029;-67
2022/09/06 06:58:54;;;;;;;18.57;8.20;;;21.90;99.90;;;;;;4977687;28;20903;-67
2022/09/06 07:01:21;;;;;;;8.97;7.10;;;22.00;99.90;;;;;;4968877;28;20445;-68
2022/09/06 07:03:47;;;;;;;17.07;7.40;;;22.00;99.90;;;;;;4972729;28;20523;-68
2022/09/06 07:06:14;;;;;;;15.67;7.73;;;22.10;99.90;;;;;;4969348;28;20477;-67
2022/09/06 07:08:40;;;;;;;8.10;6.70;;;22.10;99.90;;;;;;4970236;28;20542;-67
2022/09/06 07:11:08;;;;;;;10.73;6.23;;;22.20;99.90;;;;;;4972772;28;20944;-66
2022/09/06 07:13:34;;;;;;;15.73;8.07;;;22.30;99.90;;;;;;4974071;28;20446;-67
2022/09/06 07:16:13;;;;;;;8.27;6.30;;;22.30;99.90;;;;;;4972919;28;20617;-67
2022/09/06 07:18:41;;;;;;;8.70;5.90;;;22.40;99.90;;;;;;4973110;28;20186;-67
2022/09/06 07:21:14;;;;;;;6.87;6.27;;;22.40;99.90;;;;;;4974751;28;20465;-66
2022/09/06 07:23:40;;;;;;;7.17;5.67;;;22.50;99.90;;;;;;4956853;28;20467;-66
2022/09/06 07:26:06;;;;;;;9.17;6.03;;;22.60;99.90;;;;;;4977394;28;20500;-66
2022/09/06 07:28:32;;;;;;;6.63;6.00;;;22.70;99.90;;;;;;4969924;28;20480;-66
2022/09/06 07:30:59;;;;;;;7.37;6.57;;;22.80;99.90;;;;;;4974876;28;20186;-66
2022/09/06 07:33:25;;;;;;;9.67;7.10;;;22.90;99.90;;;;;;4975127;28;20214;-66
2022/09/06 07:35:59;;;;;;;6.27;5.60;;;23.10;99.90;;;;;;4974921;28;20450;-66
2022/09/06 07:38:25;;;;;;;13.40;7.17;;;23.10;99.90;;;;;;4974741;28;20456;-66
2022/09/06 07:40:59;;;;;;;9.87;6.97;;;23.00;99.90;;;;;;4975798;28;20438;-66
2022/09/06 07:43:26;;;;;;;9.83;5.60;;;23.10;99.90;;;;;;4976886;28;20438;-67
2022/09/06 07:46:17;;;;;;;10.23;6.07;;;23.20;99.90;;;;;;4974444;28;20524;-66
2022/09/06 07:48:45;;;;;;;6.73;6.03;;;23.30;99.90;;;;;;4972580;28;20448;-67
2022/09/06 07:51:20;;;;;;;7.80;6.20;;;23.30;99.90;;;;;;4971620;28;20445;-67
2022/09/06 07:53:51;;;;;;;13.03;7.57;;;23.40;99.90;;;;;;4973807;28;20881;-66
2022/09/06 07:56:19;;;;;;;20.80;7.93;;;23.30;99.90;;;;;;4974361;28;20503;-66
2022/09/06 07:58:45;;;;;;;8.90;6.00;;;23.30;99.90;;;;;;4972116;28;20445;-66
2022/09/06 08:01:29;;;;;;;10.50;8.00;;;23.30;99.90;;;;;;4975196;28;20446;-66
2022/09/06 08:04:00;;;;;;;18.37;9.70;;;23.40;99.90;;;;;;4971276;28;20213;-69
2022/09/06 08:06:27;;;;;;;9.33;6.27;;;23.40;99.90;;;;;;4968721;28;20503;-67
2022/09/06 08:08:54;;;;;;;9.37;6.73;;;23.40;99.90;;;;;;4969159;28;20449;-66
2022/09/06 08:11:20;;;;;;;10.73;6.57;;;23.50;99.90;;;;;;4968691;28;20437;-66
2022/09/06 08:13:50;;;;;;;7.73;6.43;;;23.50;99.90;;;;;;4971068;28;20553;-67
2022/09/06 08:16:17;;;;;;;7.17;6.47;;;23.40;99.90;;;;;;4972349;28;20691;-66
2022/09/06 08:18:43;;;;;;;7.40;6.70;;;23.40;99.90;;;;;;4970918;28;20972;-67
2022/09/06 08:21:14;;;;;;;7.50;6.80;;;23.40;99.90;;;;;;4976602;28;20793;-68
2022/09/06 08:23:43;;;;;;;10.37;7.50;;;23.40;99.90;;;;;;4970711;28;20756;-67
2022/09/06 08:26:09;;;;;;;7.83;7.13;;;23.40;99.90;;;;;;4952347;28;20479;-67
2022/09/06 08:28:35;;;;;;;11.00;7.93;;;23.50;99.90;;;;;;4969584;28;20433;-67
2022/09/06 08:31:09;;;;;;;8.10;6.60;;;23.40;99.90;;;;;;4971668;28;20463;-68
2022/09/06 08:33:36;;;;;;;11.13;7.67;;;23.40;99.90;;;;;;4974520;28;20308;-68
2022/09/06 08:36:03;;;;;;;14.20;7.50;;;23.50;99.90;;;;;;4967208;28;20457;-68
2022/09/06 08:38:29;;;;;;;7.73;6.90;;;23.50;99.90;;;;;;4968750;28;20456;-68
2022/09/06 08:41:08;;;;;;;12.40;7.53;;;23.60;99.90;;;;;;4967825;28;20499;-67
2022/09/06 08:43:35;;;;;;;9.23;7.17;;;23.60;99.90;;;;;;4964268;28;20485;-68
2022/09/06 08:46:03;;;;;;;11.13;7.10;;;23.50;99.90;;;;;;4969324;28;21080;-68
2022/09/06 08:48:32;;;;;;;9.70;7.10;;;23.60;99.90;;;;;;4968358;28;20438;-68
2022/09/06 08:51:09;;;;;;;14.33;6.97;;;23.60;99.90;;;;;;4964497;28;20442;-67
2022/09/06 08:53:40;;;;;;;7.60;6.63;;;23.70;99.90;;;;;;4968214;28;20464;-66
2022/09/06 08:56:17;;;;;;;10.80;7.47;;;23.80;99.90;;;;;;4964876;28;20453;-68
2022/09/06 08:59:10;;;;;;;7.80;6.13;;;23.80;99.90;;;;;;4967419;28;20444;-67
2022/09/06 09:01:51;;;;;;;7.77;7.00;;;23.90;99.90;;;;;;4953849;28;20449;-67
2022/09/06 09:04:22;;;;;;;7.00;6.30;;;23.80;99.90;;;;;;4969388;28;20499;-68
2022/09/06 09:06:53;;;;;;;8.10;7.27;;;23.80;99.90;;;;;;4968987;28;20592;-67
2022/09/06 09:09:19;;;;;;;9.03;6.53;;;23.80;99.90;;;;;;4967627;28;20525;-66
2022/09/06 09:11:49;;;;;;;7.60;6.87;;;23.90;99.90;;;;;;4949347;28;20452;-67
2022/09/06 09:14:20;;;;;;;17.77;7.70;;;24.00;99.90;;;;;;4966710;28;20225;-66
2022/09/06 09:16:54;;;;;;;11.43;7.53;;;24.10;99.90;;;;;;4963899;28;20451;-66
2022/09/06 09:19:19;;;;;;;14.33;7.83;;;24.20;99.90;;;;;;4967910;28;20449;-66
2022/09/06 09:21:45;;;;;;;9.93;7.57;;;24.30;99.90;;;;;;4966618;28;20989;-67
2022/09/06 09:24:14;;;;;;;8.83;7.60;;;24.30;99.90;;;;;;4967928;28;20235;-66
2022/09/06 09:27:04;;;;;;;8.03;6.87;;;24.40;99.90;;;;;;4971570;28;21415;-67
2022/09/06 09:29:30;;;;;;;7.53;5.70;;;24.40;99.90;;;;;;4968429;28;20454;-67
2022/09/06 09:31:56;;;;;;;10.37;6.77;;;24.50;99.90;;;;;;4975922;28;20453;-67
2022/09/06 09:34:32;;;;;;;7.10;6.20;;;24.50;99.90;;;;;;4974170;28;20476;-66
2022/09/06 09:37:11;;;;;;;9.03;5.80;;;24.60;99.90;;;;;;4978186;28;20236;-66
2022/09/06 09:39:38;;;;;;;12.00;6.40;;;24.70;99.90;;;;;;4978672;28;20441;-66
2022/09/06 09:42:05;;;;;;;7.57;6.27;;;24.70;99.90;;;;;;4974741;28;21009;-66
2022/09/06 09:44:32;;;;;;;8.97;6.00;;;24.80;99.90;;;;;;4971784;28;20464;-66
2022/09/06 09:46:57;;;;;;;10.47;6.90;;;24.90;99.90;;;;;;4974730;28;20504;-67
2022/09/06 09:49:27;;;;;;;7.33;5.97;;;24.90;99.90;;;;;;4973150;28;20524;-66
2022/09/06 09:52:13;;;;;;;11.07;6.87;;;25.00;99.90;;;;;;4972352;28;20574;-66
2022/09/06 09:54:45;;;;;;;7.40;6.20;;;25.10;99.90;;;;;;4971136;28;21792;-66
2022/09/06 09:57:16;;;;;;;10.37;5.87;;;25.20;99.90;;;;;;4971557;28;20479;-66
2022/09/06 09:59:54;;;;;;;9.17;6.07;;;25.30;99.90;;;;;;4974073;28;20544;-66
2022/09/06 10:02:24;;;;;;;7.40;6.37;;;25.40;99.90;;;;;;4978756;28;20449;-66
2022/09/06 10:04:52;;;;;;;13.90;6.50;;;25.60;99.90;;;;;;4975445;28;20974;-66
2022/09/06 10:07:25;;;;;;;8.43;5.67;;;25.70;99.90;;;;;;4976475;28;20882;-66
2022/09/06 10:09:59;;;;;;;8.20;6.50;;;25.80;99.90;;;;;;4976213;28;20442;-66
2022/09/06 10:12:40;;;;;;;6.83;6.23;;;26.00;99.90;;;;;;4957562;28;20447;-66
2022/09/06 10:15:11;;;;;;;9.07;6.70;;;26.10;99.90;;;;;;4980916;28;20956;-67
2022/09/06 10:17:50;;;;;;;8.17;6.93;;;26.20;99.90;;;;;;4975822;28;20460;-67
2022/09/06 10:20:17;;;;;;;17.00;6.60;;;26.20;99.90;;;;;;4977734;28;20860;-67
2022/09/06 10:22:47;;;;;;;7.87;5.93;;;26.30;99.90;;;;;;4976413;28;20862;-66
2022/09/06 10:25:45;;;;;;;6.90;6.20;;;26.20;99.90;;;;;;4976400;28;20465;-67
2022/09/06 10:28:17;;;;;;;8.63;5.90;;;26.20;99.90;;;;;;4973721;28;20437;-67
2022/09/06 10:31:05;;;;;;;7.00;6.30;;;26.20;99.90;;;;;;4978966;28;20445;-70
2022/09/06 10:33:45;;;;;;;11.10;7.10;;;26.00;99.90;;;;;;4974926;28;20472;-68
2022/09/06 10:36:16;;;;;;;8.80;6.13;;;26.00;99.90;;;;;;4978611;28;20451;-69
2022/09/06 10:38:57;;;;;;;6.23;5.10;;;25.90;99.90;;;;;;4974505;28;20463;-69
2022/09/06 10:41:49;;;;;;;8.17;6.43;;;26.00;99.90;;;;;;4972115;28;20860;-67
2022/09/06 10:44:36;;;;;;;10.23;6.43;;;26.10;99.90;;;;;;4971336;28;20462;-67
2022/09/06 10:47:14;;;;;;;8.60;6.10;;;26.10;99.90;;;;;;4975963;28;20790;-70
2022/09/06 10:49:44;;;;;;;8.80;6.30;;;26.20;99.90;;;;;;4971699;28;20440;-70
2022/09/06 10:52:16;;;;;;;6.83;5.03;;;26.20;99.90;;;;;;4974054;28;20433;-71
2022/09/06 10:54:46;;;;;;;6.77;5.73;;;26.30;99.90;;;;;;4953818;28;20453;-70
2022/09/06 10:57:44;;;;;;;10.83;5.57;;;26.30;99.90;;;;;;4975085;28;20433;-71
2022/09/06 11:00:13;;;;;;;11.33;5.50;;;26.40;99.90;;;;;;4950165;28;21081;-71
2022/09/06 11:03:13;;;;;;;6.40;5.27;;;26.50;99.90;;;;;;4973152;28;20853;-71
2022/09/06 11:05:55;;;;;;;7.03;6.30;;;26.50;99.90;;;;;;4974879;28;20832;-74
2022/09/06 11:08:47;;;;;;;6.47;4.77;;;26.60;99.90;;;;;;4959354;28;21092;-73
2022/09/06 11:11:30;;;;;;;8.93;5.10;;;26.70;99.90;;;;;;4973896;28;20858;-72
2022/09/06 11:13:55;;;;;;;11.13;5.10;;;26.70;99.90;;;;;;4974392;23;20548;-70
2022/09/06 11:16:29;;;;;;;5.30;4.43;;;26.80;99.90;;;;;;4957877;28;21296;-70
2022/09/06 11:19:08;;;;;;;7.50;4.60;;;26.90;99.90;;;;;;4957683;28;20202;-70
2022/09/06 11:21:59;;;;;;;6.20;4.37;;;27.00;99.90;;;;;;4957507;28;20444;-72
2022/09/06 11:24:46;;;;;;;11.13;5.47;;;27.10;99.90;;;;;;4950645;28;20974;-69
2022/09/06 11:27:33;;;;;;;9.50;4.57;;;27.10;99.90;;;;;;4932341;28;20466;-70
2022/09/06 11:30:02;;;;;;;10.53;4.50;;;27.10;99.90;;;;;;4951605;28;20433;-70
2022/09/06 11:32:47;;;;;;;9.17;4.67;;;27.20;99.90;;;;;;4955261;28;21037;-72
2022/09/06 11:35:31;;;;;;;5.33;4.37;;;27.30;99.90;;;;;;4952954;28;20458;-71
2022/09/06 11:38:25;;;;;;;8.93;5.20;;;27.50;99.90;;;;;;4954059;28;20472;-71
2022/09/06 11:41:01;;;;;;;9.60;4.70;;;27.60;99.90;;;;;;4959461;28;20429;-72
2022/09/06 11:43:45;;;;;;;8.93;4.00;;;27.70;99.90;;;;;;4952970;28;20450;-72
2022/09/06 11:46:31;;;;;;;7.03;4.23;;;27.90;99.90;;;;;;4938433;28;20501;-70
2022/09/06 11:49:01;;;;;;;9.07;4.13;;;28.00;99.90;;;;;;4954787;28;20445;-69
2022/09/06 11:51:35;;;;;;;11.20;5.10;;;28.20;99.90;;;;;;4956076;28;20430;-71
2022/09/06 11:54:14;;;;;;;6.23;3.90;;;28.20;99.90;;;;;;4953577;28;20457;-71
2022/09/06 11:56:44;;;;;;;8.30;3.57;;;28.40;99.90;;;;;;4954324;28;20429;-72
2022/09/06 11:59:17;;;;;;;5.13;4.20;;;28.70;99.90;;;;;;4955767;28;20443;-71
2022/09/06 12:01:55;;;;;;;11.57;4.23;;;28.90;99.90;;;;;;4954375;28;20466;-71
2022/09/06 12:04:22;;;;;;;12.43;4.63;;;29.00;99.90;;;;;;4953859;28;20468;-72
2022/09/06 12:07:20;;;;;;;6.87;4.37;;;29.60;99.90;;;;;;4954379;28;20450;-72
2022/09/06 12:09:46;;;;;;;5.73;4.20;;;29.70;99.90;;;;;;4933422;28;20427;-71
2022/09/06 12:12:43;;;;;;;6.07;3.97;;;30.00;99.90;;;;;;4955306;28;20825;-71
2022/09/06 12:15:24;;;;;;;6.17;4.30;;;30.30;99.90;;;;;;4956322;28;20219;-71
2022/09/06 12:17:50;;;;;;;9.43;4.47;;;30.70;99.90;;;;;;4954063;28;20414;-71
2022/09/06 12:20:46;;;;;;;6.27;4.00;;;31.00;99.90;;;;;;4959570;28;20414;-72
2022/09/06 12:23:34;;;;;;;5.47;3.63;;;31.00;99.90;;;;;;4937855;28;20175;-72
2022/09/06 12:26:01;;;;;;;6.23;3.67;;;31.00;99.90;;;;;;4955685;28;20470;-71
2022/09/06 12:28:33;;;;;;;5.60;3.63;;;30.90;99.90;;;;;;4956441;28;20937;-72
2022/09/06 12:31:00;;;;;;;6.70;3.70;;;30.80;99.90;;;;;;4956408;28;20418;-71
2022/09/06 12:33:35;;;;;;;9.07;4.20;;;30.80;99.90;;;;;;4955472;28;20469;-71
2022/09/06 12:36:23;;;;;;;5.60;3.70;;;31.00;99.90;;;;;;4957992;28;20994;-72
2022/09/06 12:39:02;;;;;;;5.90;3.63;;;31.50;99.90;;;;;;4942723;28;21001;-71
2022/09/06 12:41:37;;;;;;;8.13;4.27;;;31.90;99.90;;;;;;4961278;28;20863;-72
2022/09/06 12:44:06;;;;;;;7.03;3.80;;;32.40;98.90;;;;;;4959407;28;20489;-72
2022/09/06 12:46:33;;;;;;;7.10;4.10;;;32.60;97.20;;;;;;4943490;28;20899;-72
2022/09/06 12:49:03;;;;;;;6.60;4.33;;;32.80;96.00;;;;;;4956182;28;20440;-72
2022/09/06 12:51:29;;;;;;;6.87;3.53;;;32.90;95.00;;;;;;4944522;28;20604;-72
2022/09/06 12:54:03;;;;;;;6.30;4.30;;;33.10;93.80;;;;;;4956514;28;20448;-72
2022/09/06 12:56:32;;;;;;;4.33;3.83;;;32.80;92.70;;;;;;4950557;28;21228;-72
2022/09/06 12:59:23;;;;;;;4.00;3.20;;;32.80;92.80;;;;;;4935797;28;20480;-71
2022/09/06 13:02:04;;;;;;;12.13;7.20;;;33.00;92.40;;;;;;4951769;28;20419;-71
2022/09/06 13:04:40;;;;;;;8.30;3.57;;;33.50;91.80;;;;;;4958701;28;20785;-72
2022/09/06 13:07:11;;;;;;;9.33;3.80;;;33.70;90.20;;;;;;4950198;28;20446;-73